sensor_id;sensor_type;location;lat;lon;timestamp;pressure;altitude;pressure_sealevel;temperature;humidity
23241;BME280;11789;53.482;9.862;2023-05-20T00:00:13;102818.50;;;10.82;59.43
23241;BME280;11789;53.482;9.862;2023-05-20T00:02:38;102820.19;;;10.81;59.26
23241;BME280;11789;53.482;9.862;2023-05-20T00:05:04;102815.78;;;10.79;59.38
23241;BME280;11789;53.482;9.862;2023-05-20T00:07:30;102814.03;;;10.78;59.42
23241;BME280;11789;53.482;9.862;2023-05-20T00:09:56;102820.91;;;10.76;59.56
23241;BME280;11789;53.482;9.862;2023-05-20T00:12:21;102818.31;;;10.76;59.71
23241;BME280;11789;53.482;9.862;2023-05-20T00:14:46;102816.59;;;10.76;59.58
23241;BME280;11789;53.482;9.862;2023-05-20T00:17:12;102818.25;;;10.74;59.50
23241;BME280;11789;53.482;9.862;2023-05-20T00:19:37;102814.78;;;10.74;59.59
23241;BME280;11789;53.482;9.862;2023-05-20T00:22:04;102813.03;;;10.73;59.59
23241;BME280;11789;53.482;9.862;2023-05-20T00:24:30;102814.75;;;10.72;59.66
23241;BME280;11789;53.482;9.862;2023-05-20T00:26:55;102819.91;;;10.72;59.86
23241;BME280;11789;53.482;9.862;2023-05-20T00:29:21;102821.59;;;10.70;59.97
23241;BME280;11789;53.482;9.862;2023-05-20T00:31:46;102818.91;;;10.67;59.94
23241;BME280;11789;53.482;9.862;2023-05-20T00:34:12;102819.75;;;10.66;60.29
23241;BME280;11789;53.482;9.862;2023-05-20T00:36:37;102818.75;;;10.62;60.34
23241;BME280;11789;53.482;9.862;2023-05-20T00:39:03;102817.00;;;10.61;60.66
23241;BME280;11789;53.482;9.862;2023-05-20T00:41:29;102816.03;;;10.58;60.78
23241;BME280;11789;53.482;9.862;2023-05-20T00:43:55;102816.03;;;10.58;61.03
23241;BME280;11789;53.482;9.862;2023-05-20T00:46:23;102813.44;;;10.58;60.80
23241;BME280;11789;53.482;9.862;2023-05-20T00:48:50;102817.00;;;10.61;60.63
23241;BME280;11789;53.482;9.862;2023-05-20T00:51:16;102817.84;;;10.60;60.71
23241;BME280;11789;53.482;9.862;2023-05-20T00:53:42;102814.31;;;10.58;60.84
23241;BME280;11789;53.482;9.862;2023-05-20T00:56:08;102810.78;;;10.55;61.10
23241;BME280;11789;53.482;9.862;2023-05-20T00:58:34;102805.53;;;10.53;61.21
23241;BME280;11789;53.482;9.862;2023-05-20T01:01:04;102806.37;;;10.52;61.27
23241;BME280;11789;53.482;9.862;2023-05-20T01:03:29;102802.00;;;10.50;61.34
23241;BME280;11789;53.482;9.862;2023-05-20T01:05:55;102804.75;;;10.54;61.03
23241;BME280;11789;53.482;9.862;2023-05-20T01:08:22;102805.50;;;10.52;61.27
23241;BME280;11789;53.482;9.862;2023-05-20T01:10:56;102806.25;;;10.48;61.19
23241;BME280;11789;53.482;9.862;2023-05-20T01:13:30;102801.03;;;10.46;61.42
23241;BME280;11789;53.482;9.862;2023-05-20T01:15:59;102796.72;;;10.47;60.96
23241;BME280;11789;53.482;9.862;2023-05-20T01:18:26;102802.63;;;10.43;61.25
23241;BME280;11789;53.482;9.862;2023-05-20T01:20:56;102801.75;;;10.42;61.58
23241;BME280;11789;53.482;9.862;2023-05-20T01:23:45;102797.38;;;10.39;61.58
23241;BME280;11789;53.482;9.862;2023-05-20T01:26:11;102800.75;;;10.37;61.77
23241;BME280;11789;53.482;9.862;2023-05-20T01:28:37;102800.75;;;10.37;61.75
23241;BME280;11789;53.482;9.862;2023-05-20T01:31:05;102799.00;;;10.36;62.04
23241;BME280;11789;53.482;9.862;2023-05-20T01:33:35;102802.41;;;10.35;62.20
23241;BME280;11789;53.482;9.862;2023-05-20T01:36:00;102800.59;;;10.32;62.31
23241;BME280;11789;53.482;9.862;2023-05-20T01:38:26;102798.88;;;10.33;62.48
23241;BME280;11789;53.482;9.862;2023-05-20T01:40:53;102798.81;;;10.30;62.51
23241;BME280;11789;53.482;9.862;2023-05-20T01:43:20;102797.03;;;10.29;62.66
23241;BME280;11789;53.482;9.862;2023-05-20T01:45:45;102798.69;;;10.27;62.90
23241;BME280;11789;53.482;9.862;2023-05-20T01:48:12;102798.69;;;10.27;62.97
23241;BME280;11789;53.482;9.862;2023-05-20T01:50:38;102800.38;;;10.25;63.14
23241;BME280;11789;53.482;9.862;2023-05-20T01:53:04;102795.94;;;10.22;63.34
23241;BME280;11789;53.482;9.862;2023-05-20T01:55:30;102788.12;;;10.21;63.29
23241;BME280;11789;53.482;9.862;2023-05-20T01:57:55;102795.06;;;10.22;63.13
23241;BME280;11789;53.482;9.862;2023-05-20T02:00:21;102806.22;;;10.21;63.16
23241;BME280;11789;53.482;9.862;2023-05-20T02:02:46;102807.94;;;10.20;62.97
23241;BME280;11789;53.482;9.862;2023-05-20T02:05:12;102800.22;;;10.22;62.97
23241;BME280;11789;53.482;9.862;2023-05-20T02:07:37;102801.06;;;10.21;62.91
23241;BME280;11789;53.482;9.862;2023-05-20T02:10:03;102797.59;;;10.20;62.95
23241;BME280;11789;53.482;9.862;2023-05-20T02:12:29;102796.72;;;10.20;63.11
23241;BME280;11789;53.482;9.862;2023-05-20T02:14:54;102797.53;;;10.19;63.18
23241;BME280;11789;53.482;9.862;2023-05-20T02:17:20;102793.25;;;10.19;63.21
23241;BME280;11789;53.482;9.862;2023-05-20T02:19:45;102794.06;;;10.18;63.40
23241;BME280;11789;53.482;9.862;2023-05-20T02:22:11;102790.59;;;10.18;63.42
23241;BME280;11789;53.482;9.862;2023-05-20T02:24:37;102791.44;;;10.17;63.52
23241;BME280;11789;53.482;9.862;2023-05-20T02:27:02;102792.25;;;10.14;63.65
23241;BME280;11789;53.482;9.862;2023-05-20T02:29:29;102782.66;;;10.11;63.77
23241;BME280;11789;53.482;9.862;2023-05-20T02:31:55;102783.53;;;10.12;63.93
23241;BME280;11789;53.482;9.862;2023-05-20T02:34:20;102781.69;;;10.08;64.27
23241;BME280;11789;53.482;9.862;2023-05-20T02:36:46;102782.53;;;10.07;64.38
23241;BME280;11789;53.482;9.862;2023-05-20T02:39:11;102776.47;;;10.06;64.71
23241;BME280;11789;53.482;9.862;2023-05-20T02:41:37;102777.19;;;10.02;65.10
23241;BME280;11789;53.482;9.862;2023-05-20T02:44:03;102769.31;;;9.98;65.28
23241;BME280;11789;53.482;9.862;2023-05-20T02:46:28;102780.44;;;9.95;65.61
23241;BME280;11789;53.482;9.862;2023-05-20T02:48:54;102781.16;;;9.91;65.90
23241;BME280;11789;53.482;9.862;2023-05-20T02:51:19;102776.72;;;9.87;66.18
23241;BME280;11789;53.482;9.862;2023-05-20T02:53:45;102778.41;;;9.86;66.43
23241;BME280;11789;53.482;9.862;2023-05-20T02:56:12;102777.53;;;9.86;66.83
23241;BME280;11789;53.482;9.862;2023-05-20T02:58:38;102774.97;;;9.86;67.24
23241;BME280;11789;53.482;9.862;2023-05-20T03:01:03;102775.78;;;9.85;67.67
23241;BME280;11789;53.482;9.862;2023-05-20T03:03:29;102777.50;;;9.84;68.03
23241;BME280;11789;53.482;9.862;2023-05-20T03:05:55;102780.00;;;9.83;68.45
23241;BME280;11789;53.482;9.862;2023-05-20T03:08:21;102781.69;;;9.81;68.76
23241;BME280;11789;53.482;9.862;2023-05-20T03:10:47;102791.88;;;9.78;69.40
23241;BME280;11789;53.482;9.862;2023-05-20T03:13:13;102790.22;;;9.78;70.24
23241;BME280;11789;53.482;9.862;2023-05-20T03:15:42;102793.59;;;9.77;70.92
23241;BME280;11789;53.482;9.862;2023-05-20T03:18:10;102791.81;;;9.75;71.69
23241;BME280;11789;53.482;9.862;2023-05-20T03:20:38;102786.66;;;9.75;72.33
23241;BME280;11789;53.482;9.862;2023-05-20T03:23:04;102786.72;;;9.78;72.98
23241;BME280;11789;53.482;9.862;2023-05-20T03:25:30;102791.09;;;9.79;73.46
23241;BME280;11789;53.482;9.862;2023-05-20T03:27:56;102790.94;;;9.74;74.07
23241;BME280;11789;53.482;9.862;2023-05-20T03:30:23;102790.94;;;9.74;74.73
23241;BME280;11789;53.482;9.862;2023-05-20T03:32:49;102794.41;;;9.75;75.21
23241;BME280;11789;53.482;9.862;2023-05-20T03:35:15;102785.69;;;9.73;75.84
23241;BME280;11789;53.482;9.862;2023-05-20T03:37:41;102786.53;;;9.72;76.30
23241;BME280;11789;53.482;9.862;2023-05-20T03:40:08;102783.13;;;9.73;76.74
23241;BME280;11789;53.482;9.862;2023-05-20T03:42:35;102779.63;;;9.71;77.16
23241;BME280;11789;53.482;9.862;2023-05-20T03:45:00;102787.38;;;9.71;77.65
23241;BME280;11789;53.482;9.862;2023-05-20T03:47:26;102783.03;;;9.70;77.94
23241;BME280;11789;53.482;9.862;2023-05-20T03:49:52;102784.06;;;9.75;78.38
23241;BME280;11789;53.482;9.862;2023-05-20T03:52:17;102780.53;;;9.73;78.59
23241;BME280;11789;53.482;9.862;2023-05-20T03:54:43;102790.06;;;9.74;78.83
23241;BME280;11789;53.482;9.862;2023-05-20T03:57:09;102788.41;;;9.76;79.30
23241;BME280;11789;53.482;9.862;2023-05-20T03:59:37;102779.81;;;9.77;79.56
23241;BME280;11789;53.482;9.862;2023-05-20T04:02:05;102783.44;;;9.82;79.53
23241;BME280;11789;53.482;9.862;2023-05-20T04:04:30;102773.97;;;9.82;79.79
23241;BME280;11789;53.482;9.862;2023-05-20T04:06:57;102786.16;;;9.86;79.97
23241;BME280;11789;53.482;9.862;2023-05-20T04:09:25;102784.59;;;9.92;80.22
23241;BME280;11789;53.482;9.862;2023-05-20T04:11:51;102788.06;;;9.92;80.38
23241;BME280;11789;53.482;9.862;2023-05-20T04:14:16;102796.75;;;9.94;80.63
23241;BME280;11789;53.482;9.862;2023-05-20T04:16:42;102794.25;;;9.97;81.02
23241;BME280;11789;53.482;9.862;2023-05-20T04:19:09;102792.66;;;10.01;81.23
23241;BME280;11789;53.482;9.862;2023-05-20T04:21:35;102793.66;;;10.04;81.22
23241;BME280;11789;53.482;9.862;2023-05-20T04:24:00;102792.91;;;10.08;81.46
23241;BME280;11789;53.482;9.862;2023-05-20T04:26:26;102793.72;;;10.07;81.82
23241;BME280;11789;53.482;9.862;2023-05-20T04:28:51;102796.31;;;10.07;82.12
23241;BME280;11789;53.482;9.862;2023-05-20T04:31:16;102789.50;;;10.09;82.36
23241;BME280;11789;53.482;9.862;2023-05-20T04:33:42;102787.13;;;10.16;82.73
23241;BME280;11789;53.482;9.862;2023-05-20T04:36:09;102795.69;;;10.14;82.88
23241;BME280;11789;53.482;9.862;2023-05-20T04:38:36;102789.69;;;10.16;83.36
23241;BME280;11789;53.482;9.862;2023-05-20T04:41:02;102795.78;;;10.18;83.67
23241;BME280;11789;53.482;9.862;2023-05-20T04:43:28;102791.44;;;10.17;84.26
23241;BME280;11789;53.482;9.862;2023-05-20T04:45:54;102782.84;;;10.18;84.57
23241;BME280;11789;53.482;9.862;2023-05-20T04:48:20;102790.56;;;10.16;85.06
23241;BME280;11789;53.482;9.862;2023-05-20T04:50:47;102786.28;;;10.17;85.40
23241;BME280;11789;53.482;9.862;2023-05-20T04:53:19;102780.38;;;10.21;85.64
23241;BME280;11789;53.482;9.862;2023-05-20T04:55:46;102782.09;;;10.20;86.05
23241;BME280;11789;53.482;9.862;2023-05-20T04:58:12;102785.56;;;10.21;86.28
23241;BME280;11789;53.482;9.862;2023-05-20T05:00:44;102791.75;;;10.24;86.49
23241;BME280;11789;53.482;9.862;2023-05-20T05:03:11;102785.78;;;10.27;86.77
23241;BME280;11789;53.482;9.862;2023-05-20T05:05:40;102781.47;;;10.27;86.96
23241;BME280;11789;53.482;9.862;2023-05-20T05:08:07;102785.06;;;10.32;87.10
23241;BME280;11789;53.482;9.862;2023-05-20T05:10:33;102782.69;;;10.38;87.31
23241;BME280;11789;53.482;9.862;2023-05-20T05:13:00;102780.97;;;10.39;87.36
23241;BME280;11789;53.482;9.862;2023-05-20T05:15:25;102778.59;;;10.45;87.55
23241;BME280;11789;53.482;9.862;2023-05-20T05:17:51;102780.44;;;10.49;87.71
23241;BME280;11789;53.482;9.862;2023-05-20T05:20:16;102772.00;;;10.55;87.75
23241;BME280;11789;53.482;9.862;2023-05-20T05:22:42;102784.16;;;10.59;87.71
23241;BME280;11789;53.482;9.862;2023-05-20T05:25:09;102779.13;;;10.63;87.75
23241;BME280;11789;53.482;9.862;2023-05-20T05:27:35;102790.62;;;10.73;87.77
23241;BME280;11789;53.482;9.862;2023-05-20T05:30:01;102792.50;;;10.79;87.57
23241;BME280;11789;53.482;9.862;2023-05-20T05:32:26;102790.19;;;10.88;87.30
23241;BME280;11789;53.482;9.862;2023-05-20T05:34:52;102782.69;;;10.97;86.95
23241;BME280;11789;53.482;9.862;2023-05-20T05:37:18;102790.62;;;11.03;86.80
23241;BME280;11789;53.482;9.862;2023-05-20T05:39:43;102784.75;;;11.09;86.54
23241;BME280;11789;53.482;9.862;2023-05-20T05:42:08;102785.03;;;11.20;86.37
23241;BME280;11789;53.482;9.862;2023-05-20T05:44:34;102783.56;;;11.29;86.06
23241;BME280;11789;53.482;9.862;2023-05-20T05:46:59;102791.81;;;11.46;85.52
23241;BME280;11789;53.482;9.862;2023-05-20T05:49:25;102787.53;;;11.48;84.75
23241;BME280;11789;53.482;9.862;2023-05-20T05:51:51;102792.97;;;11.57;84.87
23241;BME280;11789;53.482;9.862;2023-05-20T05:54:16;102788.91;;;11.67;84.03
23241;BME280;11789;53.482;9.862;2023-05-20T05:56:41;102789.03;;;11.72;83.58
23241;BME280;11789;53.482;9.862;2023-05-20T05:59:07;102778.78;;;11.76;83.55
23241;BME280;11789;53.482;9.862;2023-05-20T06:01:32;102785.19;;;11.90;83.34
23241;BME280;11789;53.482;9.862;2023-05-20T06:03:58;102777.59;;;11.97;82.97
23241;BME280;11789;53.482;9.862;2023-05-20T06:06:23;102784.00;;;12.12;82.61
23241;BME280;11789;53.482;9.862;2023-05-20T06:08:49;102782.22;;;12.11;81.81
23241;BME280;11789;53.482;9.862;2023-05-20T06:11:14;102778.94;;;12.17;81.45
23241;BME280;11789;53.482;9.862;2023-05-20T06:13:40;102778.03;;;12.16;80.96
23241;BME280;11789;53.482;9.862;2023-05-20T06:16:05;102787.69;;;12.22;80.08
23241;BME280;11789;53.482;9.862;2023-05-20T06:18:30;102783.16;;;12.13;79.88
23241;BME280;11789;53.482;9.862;2023-05-20T06:20:57;102772.09;;;12.20;80.46
23241;BME280;11789;53.482;9.862;2023-05-20T06:23:22;102768.81;;;12.28;79.67
23241;BME280;11789;53.482;9.862;2023-05-20T06:25:49;102773.16;;;12.29;80.34
23241;BME280;11789;53.482;9.862;2023-05-20T06:28:15;102765.44;;;12.32;79.63
23241;BME280;11789;53.482;9.862;2023-05-20T06:30:41;102767.97;;;12.30;79.71
23241;BME280;11789;53.482;9.862;2023-05-20T06:33:07;102762.84;;;12.32;80.14
23241;BME280;11789;53.482;9.862;2023-05-20T06:35:32;102761.91;;;12.30;80.40
23241;BME280;11789;53.482;9.862;2023-05-20T06:37:59;102761.94;;;12.31;80.88
23241;BME280;11789;53.482;9.862;2023-05-20T06:40:26;102766.34;;;12.34;80.34
23241;BME280;11789;53.482;9.862;2023-05-20T06:42:52;102763.88;;;12.40;80.25
23241;BME280;11789;53.482;9.862;2023-05-20T06:45:17;102764.88;;;12.46;79.79
23241;BME280;11789;53.482;9.862;2023-05-20T06:47:44;102756.38;;;12.52;79.80
23241;BME280;11789;53.482;9.862;2023-05-20T06:50:10;102750.50;;;12.61;79.62
23241;BME280;11789;53.482;9.862;2023-05-20T06:52:35;102756.63;;;12.64;79.63
23241;BME280;11789;53.482;9.862;2023-05-20T06:55:02;102750.78;;;12.75;79.66
23241;BME280;11789;53.482;9.862;2023-05-20T06:57:28;102746.50;;;12.77;79.20
23241;BME280;11789;53.482;9.862;2023-05-20T06:59:53;102743.94;;;12.78;79.02
23241;BME280;11789;53.482;9.862;2023-05-20T07:02:20;102739.66;;;12.82;79.28
23241;BME280;11789;53.482;9.862;2023-05-20T07:04:45;102744.03;;;12.83;79.21
23241;BME280;11789;53.482;9.862;2023-05-20T07:07:11;102734.53;;;12.83;78.18
23241;BME280;11789;53.482;9.862;2023-05-20T07:09:36;102731.09;;;12.84;77.56
23241;BME280;11789;53.482;9.862;2023-05-20T07:12:02;102732.72;;;12.81;77.78
23241;BME280;11789;53.482;9.862;2023-05-20T07:14:27;102734.53;;;12.83;78.22
23241;BME280;11789;53.482;9.862;2023-05-20T07:16:53;102739.88;;;12.92;77.90
23241;BME280;11789;53.482;9.862;2023-05-20T07:19:18;102731.37;;;12.98;76.67
23241;BME280;11789;53.482;9.862;2023-05-20T07:21:44;102733.09;;;12.99;76.58
23241;BME280;11789;53.482;9.862;2023-05-20T07:24:09;102734.00;;;13.01;75.92
23241;BME280;11789;53.482;9.862;2023-05-20T07:26:35;102733.19;;;13.04;76.52
23241;BME280;11789;53.482;9.862;2023-05-20T07:29:04;102734.25;;;13.15;77.67
23241;BME280;11789;53.482;9.862;2023-05-20T07:31:30;102737.97;;;13.26;77.12
23241;BME280;11789;53.482;9.862;2023-05-20T07:33:56;102741.53;;;13.31;76.51
23241;BME280;11789;53.482;9.862;2023-05-20T07:36:21;102733.91;;;13.42;77.09
23241;BME280;11789;53.482;9.862;2023-05-20T07:38:47;102737.56;;;13.53;76.90
23241;BME280;11789;53.482;9.862;2023-05-20T07:41:12;102729.81;;;13.55;75.91
23241;BME280;11789;53.482;9.862;2023-05-20T07:43:38;102732.44;;;13.58;75.56
23241;BME280;11789;53.482;9.862;2023-05-20T07:46:03;102728.16;;;13.60;75.64
23241;BME280;11789;53.482;9.862;2023-05-20T07:48:29;102728.31;;;13.69;74.91
23241;BME280;11789;53.482;9.862;2023-05-20T07:50:54;102724.91;;;13.73;75.61
23241;BME280;11789;53.482;9.862;2023-05-20T07:53:23;102712.03;;;13.82;75.70
23241;BME280;11789;53.482;9.862;2023-05-20T07:55:49;102713.00;;;13.89;75.14
23241;BME280;11789;53.482;9.862;2023-05-20T07:58:15;102715.59;;;13.89;74.56
23241;BME280;11789;53.482;9.862;2023-05-20T08:00:40;102720.00;;;13.91;73.80
23241;BME280;11789;53.482;9.862;2023-05-20T08:03:06;102717.31;;;13.87;73.58
23241;BME280;11789;53.482;9.862;2023-05-20T08:05:32;102719.19;;;13.94;74.00
23241;BME280;11789;53.482;9.862;2023-05-20T08:07:57;102727.78;;;13.90;72.71
23241;BME280;11789;53.482;9.862;2023-05-20T08:10:23;102717.31;;;13.87;73.24
23241;BME280;11789;53.482;9.862;2023-05-20T08:12:48;102717.31;;;13.87;73.57
23241;BME280;11789;53.482;9.862;2023-05-20T08:15:14;102714.06;;;14.00;74.49
23241;BME280;11789;53.482;9.862;2023-05-20T08:17:39;102715.88;;;14.07;73.34
23241;BME280;11789;53.482;9.862;2023-05-20T08:20:05;102721.09;;;14.07;72.96
23241;BME280;11789;53.482;9.862;2023-05-20T08:22:32;102708.81;;;13.97;73.29
23241;BME280;11789;53.482;9.862;2023-05-20T08:24:57;102714.09;;;14.03;72.11
23241;BME280;11789;53.482;9.862;2023-05-20T08:27:23;102715.03;;;14.07;72.98
23241;BME280;11789;53.482;9.862;2023-05-20T08:29:49;102710.91;;;14.22;72.11
23241;BME280;11789;53.482;9.862;2023-05-20T08:32:14;102705.88;;;14.35;72.79
23241;BME280;11789;53.482;9.862;2023-05-20T08:34:39;102700.78;;;14.44;70.80
23241;BME280;11789;53.482;9.862;2023-05-20T08:37:07;102695.78;;;14.58;70.16
23241;BME280;11789;53.482;9.862;2023-05-20T08:39:33;102702.03;;;14.72;70.30
23241;BME280;11789;53.482;9.862;2023-05-20T08:41:58;102696.84;;;14.75;67.77
23241;BME280;11789;53.482;9.862;2023-05-20T08:44:25;102700.34;;;14.75;67.42
23241;BME280;11789;53.482;9.862;2023-05-20T08:46:51;102690.69;;;14.65;68.27
23241;BME280;11789;53.482;9.862;2023-05-20T08:49:18;102701.09;;;14.65;66.89
23241;BME280;11789;53.482;9.862;2023-05-20T08:51:44;102691.37;;;14.53;65.39
23241;BME280;11789;53.482;9.862;2023-05-20T08:54:12;102687.16;;;14.63;66.39
23241;BME280;11789;53.482;9.862;2023-05-20T08:56:39;102685.53;;;14.74;65.43
23241;BME280;11789;53.482;9.862;2023-05-20T08:59:07;102687.22;;;14.69;64.93
23241;BME280;11789;53.482;9.862;2023-05-20T09:01:38;102692.47;;;14.72;65.10
23241;BME280;11789;53.482;9.862;2023-05-20T09:04:05;102684.63;;;14.69;63.98
23241;BME280;11789;53.482;9.862;2023-05-20T09:06:41;102684.63;;;14.68;64.45
23241;BME280;11789;53.482;9.862;2023-05-20T09:09:12;102684.66;;;14.71;64.05
23241;BME280;11789;53.482;9.862;2023-05-20T09:11:39;102680.38;;;14.77;62.84
23241;BME280;11789;53.482;9.862;2023-05-20T09:14:06;102674.31;;;14.77;63.45
23241;BME280;11789;53.482;9.862;2023-05-20T09:16:32;102674.31;;;14.75;63.48
23241;BME280;11789;53.482;9.862;2023-05-20T09:18:57;102679.47;;;14.74;62.68
23241;BME280;11789;53.482;9.862;2023-05-20T09:21:27;102663.84;;;14.74;62.53
23241;BME280;11789;53.482;9.862;2023-05-20T09:23:52;102670.94;;;14.87;63.03
23241;BME280;11789;53.482;9.862;2023-05-20T09:26:18;102670.22;;;15.02;62.86
23241;BME280;11789;53.482;9.862;2023-05-20T09:28:44;102659.84;;;15.08;61.93
23241;BME280;11789;53.482;9.862;2023-05-20T09:31:12;102659.97;;;15.20;61.89
23241;BME280;11789;53.482;9.862;2023-05-20T09:33:39;102678.28;;;15.26;59.95
23241;BME280;11789;53.482;9.862;2023-05-20T09:36:09;102657.25;;;15.08;60.26
23241;BME280;11789;53.482;9.862;2023-05-20T09:38:38;102663.34;;;15.07;61.55
23241;BME280;11789;53.482;9.862;2023-05-20T09:41:10;102659.03;;;15.14;62.12
23241;BME280;11789;53.482;9.862;2023-05-20T09:43:38;102663.47;;;15.22;62.19
23241;BME280;11789;53.482;9.862;2023-05-20T09:46:04;102659.19;;;15.30;61.30
23241;BME280;11789;53.482;9.862;2023-05-20T09:48:32;102653.87;;;15.18;62.29
23241;BME280;11789;53.482;9.862;2023-05-20T09:51:00;102649.44;;;15.10;63.14
23241;BME280;11789;53.482;9.862;2023-05-20T09:53:26;102649.41;;;15.05;62.74
23241;BME280;11789;53.482;9.862;2023-05-20T09:55:53;102650.25;;;15.01;63.29
23241;BME280;11789;53.482;9.862;2023-05-20T09:58:19;102644.13;;;14.99;62.46
23241;BME280;11789;53.482;9.862;2023-05-20T10:00:45;102650.16;;;14.90;63.01
23241;BME280;11789;53.482;9.862;2023-05-20T10:03:11;102650.16;;;14.90;62.79
23241;BME280;11789;53.482;9.862;2023-05-20T10:05:55;102648.44;;;14.91;62.26
23241;BME280;11789;53.482;9.862;2023-05-20T10:11:27;102635.41;;;14.94;61.86
23241;BME280;11789;53.482;9.862;2023-05-20T10:16:48;102628.50;;;14.99;60.69
23241;BME280;11789;53.482;9.862;2023-05-20T10:19:27;102635.50;;;15.03;59.68
23241;BME280;11789;53.482;9.862;2023-05-20T10:22:04;102633.72;;;14.97;59.70
23241;BME280;11789;53.482;9.862;2023-05-20T10:26:57;102641.59;;;15.03;60.75
23241;BME280;11789;53.482;9.862;2023-05-20T10:29:23;102635.47;;;15.00;60.10
23241;BME280;11789;53.482;9.862;2023-05-20T10:31:50;102626.81;;;15.01;60.65
23241;BME280;11789;53.482;9.862;2023-05-20T10:34:18;102626.87;;;15.07;60.29
23241;BME280;11789;53.482;9.862;2023-05-20T10:37:01;102625.22;;;15.17;59.99
23241;BME280;11789;53.482;9.862;2023-05-20T10:39:28;102613.09;;;15.22;60.79
23241;BME280;11789;53.482;9.862;2023-05-20T10:42:07;102607.88;;;15.23;60.53
23241;BME280;11789;53.482;9.862;2023-05-20T10:44:42;102607.94;;;15.29;60.67
23241;BME280;11789;53.482;9.862;2023-05-20T10:47:08;102602.00;;;15.47;60.03
23241;BME280;11789;53.482;9.862;2023-05-20T10:49:34;102602.94;;;15.57;59.29
23241;BME280;11789;53.482;9.862;2023-05-20T10:52:01;102593.34;;;15.51;58.23
23241;BME280;11789;53.482;9.862;2023-05-20T10:54:26;102593.22;;;15.39;59.50
23241;BME280;11789;53.482;9.862;2023-05-20T10:56:53;102598.41;;;15.35;60.24
23241;BME280;11789;53.482;9.862;2023-05-20T10:59:19;102606.97;;;15.20;60.82
23241;BME280;11789;53.482;9.862;2023-05-20T11:01:49;102604.25;;;15.03;61.84
23241;BME280;11789;53.482;9.862;2023-05-20T11:04:15;102596.34;;;14.92;62.60
23241;BME280;11789;53.482;9.862;2023-05-20T11:06:50;102590.28;;;14.95;63.28
23241;BME280;11789;53.482;9.862;2023-05-20T11:09:18;102601.59;;;14.95;63.28
23241;BME280;11789;53.482;9.862;2023-05-20T11:11:43;102591.16;;;14.95;63.68
23241;BME280;11789;53.482;9.862;2023-05-20T11:14:09;102577.28;;;14.99;62.60
23241;BME280;11789;53.482;9.862;2023-05-20T11:16:40;102586.84;;;14.99;63.53
23241;BME280;11789;53.482;9.862;2023-05-20T11:19:14;102582.53;;;15.01;63.42
23241;BME280;11789;53.482;9.862;2023-05-20T11:21:47;102573.84;;;15.02;63.31
23241;BME280;11789;53.482;9.862;2023-05-20T11:24:13;102590.31;;;14.98;63.85
23241;BME280;11789;53.482;9.862;2023-05-20T11:26:39;102573.78;;;14.91;63.59
23241;BME280;11789;53.482;9.862;2023-05-20T11:29:05;102588.53;;;14.91;63.79
23241;BME280;11789;53.482;9.862;2023-05-20T11:31:31;102580.72;;;14.92;63.19
23241;BME280;11789;53.482;9.862;2023-05-20T11:34:00;102575.53;;;14.95;63.26
23241;BME280;11789;53.482;9.862;2023-05-20T11:36:27;102568.59;;;14.96;63.67
23241;BME280;11789;53.482;9.862;2023-05-20T11:38:56;102567.72;;;14.95;63.50
23241;BME280;11789;53.482;9.862;2023-05-20T11:41:26;102561.66;;;14.98;62.93
23241;BME280;11789;53.482;9.862;2023-05-20T11:43:59;102565.19;;;15.01;63.10
23241;BME280;11789;53.482;9.862;2023-05-20T11:46:25;102564.34;;;15.10;62.66
23241;BME280;11789;53.482;9.862;2023-05-20T11:48:56;102562.66;;;15.11;62.53
23241;BME280;11789;53.482;9.862;2023-05-20T11:51:28;102561.78;;;15.15;62.54
23241;BME280;11789;53.482;9.862;2023-05-20T11:54:01;102568.75;;;15.20;62.49
23241;BME280;11789;53.482;9.862;2023-05-20T11:56:30;102569.63;;;15.19;62.26
23241;BME280;11789;53.482;9.862;2023-05-20T11:58:56;102569.59;;;15.15;62.18
23241;BME280;11789;53.482;9.862;2023-05-20T12:01:23;102567.03;;;15.16;63.18
23241;BME280;11789;53.482;9.862;2023-05-20T12:03:49;102578.28;;;15.12;63.03
23241;BME280;11789;53.482;9.862;2023-05-20T12:06:15;102566.16;;;15.16;62.63
23241;BME280;11789;53.482;9.862;2023-05-20T12:08:41;102558.38;;;15.22;60.97
23241;BME280;11789;53.482;9.862;2023-05-20T12:11:06;102554.06;;;15.28;61.58
23241;BME280;11789;53.482;9.862;2023-05-20T12:13:32;102556.75;;;15.41;61.35
23241;BME280;11789;53.482;9.862;2023-05-20T12:15:57;102551.59;;;15.50;61.73
23241;BME280;11789;53.482;9.862;2023-05-20T12:18:23;102543.81;;;15.51;61.13
23241;BME280;11789;53.482;9.862;2023-05-20T12:20:48;102550.75;;;15.52;61.33
23241;BME280;11789;53.482;9.862;2023-05-20T12:23:13;102549.84;;;15.47;61.11
23241;BME280;11789;53.482;9.862;2023-05-20T12:25:39;102550.72;;;15.48;61.01
23241;BME280;11789;53.482;9.862;2023-05-20T12:28:04;102549.81;;;15.43;61.00
23241;BME280;11789;53.482;9.862;2023-05-20T12:30:30;102552.41;;;15.40;60.83
23241;BME280;11789;53.482;9.862;2023-05-20T12:32:56;102544.63;;;15.46;61.46
23241;BME280;11789;53.482;9.862;2023-05-20T12:35:25;102549.84;;;15.49;61.36
23241;BME280;11789;53.482;9.862;2023-05-20T12:38:00;102539.44;;;15.49;60.98
23241;BME280;11789;53.482;9.862;2023-05-20T12:40:25;102540.31;;;15.52;62.17
23241;BME280;11789;53.482;9.862;2023-05-20T12:42:51;102536.00;;;15.57;61.41
23241;BME280;11789;53.482;9.862;2023-05-20T12:45:16;102540.31;;;15.54;62.06
23241;BME280;11789;53.482;9.862;2023-05-20T12:47:42;102549.00;;;15.50;62.06
23241;BME280;11789;53.482;9.862;2023-05-20T12:50:08;102547.22;;;15.46;62.98
23241;BME280;11789;53.482;9.862;2023-05-20T12:52:34;102546.38;;;15.47;62.90
23241;BME280;11789;53.482;9.862;2023-05-20T12:55:00;102541.13;;;15.45;63.05